CST,Max TemperatureF,Mean TemperatureF,Min TemperatureF,Max Dew PointF,MeanDew PointF,Min DewpointF,Max Humidity, Mean Humidity, Min Humidity, Max Sea Level PressureIn, Mean Sea Level PressureIn, Min Sea Level PressureIn, Max VisibilityMiles, Mean VisibilityMiles, Min VisibilityMiles, Max Wind SpeedMPH, Mean Wind SpeedMPH, Max Gust SpeedMPH,PrecipitationIn, CloudCover, Events, WindDirDegrees
2011-11-1,76,60,44,55,47,41,93,61,29,30.24,30.18,30.15,10,9,4,9,2,14,0.00,0,,116
2011-11-2,81,68,54,60,58,53,100,76,51,30.18,30.13,30.07,10,10,8,12,4,18,0.00,3,,142
2011-11-3,69,58,47,63,48,36,93,65,36,30.20,30.13,30.03,10,9,2,22,11,32,0.11,4,Rain,327
2011-11-4,67,54,41,46,39,31,86,64,42,30.22,30.16,30.10,10,10,10,14,6,21,0.00,0,,352
2011-11-5,72,57,41,56,47,40,100,74,47,30.17,30.12,30.05,10,7,0,9,3,13,0.00,0,Fog,72
2011-11-6,79,68,57,63,58,55,93,73,52,30.18,30.13,30.08,10,9,6,10,4,16,0.00,4,,103
2011-11-7,81,72,62,64,62,60,93,74,54,30.19,30.12,30.06,10,9,5,12,5,21,0.00,3,,118
2011-11-8,79,72,64,70,66,63,100,84,67,30.06,30.01,29.96,10,9,3,16,6,23,0.11,5,Rain-Thunderstorm,153
2011-11-9,71,64,56,70,55,43,90,68,45,30.25,30.09,29.99,10,9,2,20,11,24,0.33,3,Rain-Thunderstorm,347
2011-11-10,63,52,40,41,35,25,85,54,23,30.36,30.29,30.23,10,9,1,25,10,36,T,1,,3
2011-11-11,66,50,34,42,35,24,100,61,22,30.33,30.27,30.21,10,9,1,13,4,25,0.00,0,,187
2011-11-12,74,58,41,56,50,40,100,73,46,30.20,30.14,30.07,10,10,10,16,4,22,0.00,4,,158
2011-11-13,80,69,57,63,59,57,100,73,45,30.07,30.02,29.97,10,10,10,22,7,28,0.00,1,,171
2011-11-14,83,72,60,70,65,59,100,74,47,30.02,29.96,29.89,10,5,0,15,6,21,0.12,5,Fog-Rain,171
2011-11-15,83,73,63,72,68,63,100,79,58,29.90,29.84,29.78,10,5,0,17,6,24,0.74,6,Fog-Rain-Thunderstorm,179
2011-11-16,82,72,62,70,66,57,97,74,51,30.09,29.85,29.75,10,9,6,22,8,28,0.00,4,,248
2011-11-17,65,53,41,54,37,27,84,54,24,30.35,30.27,30.12,10,10,10,23,13,30,0.00,2,,16
2011-11-18,66,51,36,51,41,31,89,69,48,30.31,30.23,30.13,10,10,10,10,4,15,0.00,0,,97
2011-11-19,78,65,51,65,60,50,100,80,60,30.14,30.10,30.06,10,8,3,17,5,22,0.00,3,,146
2011-11-20,82,75,67,72,69,66,100,81,62,30.21,30.16,30.09,10,6,0,14,5,18,0.00,6,,157
2011-11-21,82,75,68,70,68,64,100,79,58,30.22,30.14,30.01,10,7,0,25,4,30,0.00,6,Fog,156
2011-11-22,79,69,59,71,67,58,93,84,74,30.11,30.00,29.95,10,7,1,20,8,25,1.15,8,Rain-Thunderstorm,255
2011-11-23,69,60,51,55,52,49,93,74,55,30.27,30.20,30.12,10,10,4,18,10,24,0.00,4,,15
2011-11-24,70,58,45,50,47,45,100,70,40,30.33,30.28,30.23,10,9,2,12,4,16,0.00,0,,46
2011-11-25,76,62,48,63,54,45,96,73,50,30.23,30.13,30.01,10,8,2,13,4,17,0.00,2,,133
2011-11-26,76,68,59,72,64,57,100,91,82,30.01,29.96,29.86,10,8,2,28,7,37,0.70,7,Rain,216
2011-11-27,59,52,45,57,44,35,96,81,65,30.15,30.07,29.99,10,10,7,21,12,25,0.05,8,Rain,318
2011-11-28,50,43,36,37,33,28,85,66,46,30.12,30.06,30.01,10,10,8,16,6,21,0.00,2,,299
2011-11-29,62,49,35,41,31,26,89,58,27,30.16,30.09,30.03,10,10,10,16,6,21,0.00,0,,288
2011-11-30,62,49,36,41,37,33,96,65,34,30.24,30.19,30.16,10,10,10,9,2,12,0.00,0,,45